createdAt,value
2018-09-17T00:00:10.804Z,60.63
2018-09-17T00:00:41.958Z,61.12
2018-09-17T00:01:13.102Z,61.23
2018-09-17T00:01:44.219Z,61.04
2018-09-17T00:02:15.344Z,61.71
2018-09-17T00:02:46.459Z,61.16
2018-09-17T00:03:17.572Z,61.39
2018-09-17T00:03:48.724Z,61.81
2018-09-17T00:04:19.834Z,60.90
2018-09-17T00:04:50.979Z,61.50
2018-09-17T00:05:22.126Z,61.23
2018-09-17T00:05:53.244Z,61.74
2018-09-17T00:06:24.358Z,61.86
2018-09-17T00:06:55.800Z,61.31
2018-09-17T00:07:26.903Z,61.91
2018-09-17T00:07:58.120Z,62.21
2018-09-17T00:08:29.240Z,61.92
2018-09-17T00:09:00.378Z,62.55
2018-09-17T00:09:31.503Z,62.63
2018-09-17T00:10:02.643Z,62.87
2018-09-17T00:10:33.790Z,62.83
2018-09-17T00:11:04.924Z,62.66
2018-09-17T00:11:36.053Z,63.26
2018-09-17T00:12:07.215Z,63.65
2018-09-17T00:12:38.334Z,63.07
2018-09-17T00:13:09.484Z,63.49
2018-09-17T00:13:40.599Z,63.07
2018-09-17T00:14:11.718Z,63.38
2018-09-17T00:14:42.852Z,63.34
2018-09-17T00:15:13.972Z,62.62
2018-09-17T00:15:45.137Z,62.57
2018-09-17T00:16:16.294Z,62.92
2018-09-17T00:16:47.407Z,63.53
2018-09-17T00:17:18.519Z,62.86
2018-09-17T00:17:49.642Z,63.42
2018-09-17T00:18:20.774Z,63.00
2018-09-17T00:18:51.895Z,62.87
2018-09-17T00:19:23.048Z,62.71
2018-09-17T00:19:54.168Z,63.18
2018-09-17T00:20:25.327Z,63.74
2018-09-17T00:20:56.451Z,63.56
2018-09-17T00:21:27.598Z,64.18
2018-09-17T00:21:58.731Z,63.76
2018-09-17T00:22:29.877Z,64.65
2018-09-17T00:23:00.988Z,64.59
2018-09-17T00:23:32.094Z,64.54
2018-09-17T00:24:03.221Z,64.34
2018-09-17T00:24:34.383Z,64.54
2018-09-17T00:25:05.495Z,65.11
2018-09-17T00:25:36.635Z,65.19
2018-09-17T00:26:07.746Z,64.90
2018-09-17T00:26:38.874Z,65.20
2018-09-17T00:27:09.995Z,64.75
2018-09-17T00:27:41.126Z,64.48
2018-09-17T00:28:12.255Z,64.33
2018-09-17T00:28:43.367Z,64.63
2018-09-17T00:29:14.505Z,64.10
2018-09-17T00:29:45.664Z,64.91
2018-09-17T00:30:16.816Z,64.53
2018-09-17T00:30:47.949Z,64.99
2018-09-17T00:31:19.126Z,64.72
2018-09-17T00:31:50.263Z,64.00
2018-09-17T00:32:21.425Z,64.05
2018-09-17T00:32:52.544Z,64.81
2018-09-17T00:33:23.659Z,64.85
2018-09-17T00:33:54.784Z,64.31
2018-09-17T00:34:25.936Z,64.46
2018-09-17T00:34:57.055Z,64.89
2018-09-17T00:35:28.179Z,63.93
2018-09-17T00:35:59.297Z,63.80
2018-09-17T00:36:30.438Z,64.00
2018-09-17T00:37:01.573Z,64.46
2018-09-17T00:37:32.758Z,64.56
2018-09-17T00:38:03.899Z,64.50
2018-09-17T00:38:35.026Z,64.14
2018-09-17T00:39:06.162Z,63.64
2018-09-17T00:39:37.306Z,64.05
2018-09-17T00:40:08.419Z,63.90
2018-09-17T00:40:39.535Z,63.99
2018-09-17T00:41:10.664Z,63.81
2018-09-17T00:41:41.813Z,64.60
2018-09-17T00:42:12.936Z,64.53
2018-09-17T00:42:44.098Z,64.23
2018-09-17T00:43:15.232Z,64.27
2018-09-17T00:43:46.354Z,64.56
2018-09-17T00:44:17.475Z,64.43
2018-09-17T00:44:48.626Z,64.68
2018-09-17T00:45:19.743Z,64.64
2018-09-17T00:45:50.850Z,64.65
2018-09-17T00:46:21.981Z,64.16
2018-09-17T00:46:53.113Z,64.06
2018-09-17T00:47:24.262Z,64.22
2018-09-17T00:47:55.443Z,64.25
2018-09-17T00:48:26.575Z,64.53
2018-09-17T00:48:57.691Z,64.11
2018-09-17T00:49:28.835Z,63.73
2018-09-17T00:49:59.963Z,62.92
2018-09-17T00:50:31.080Z,62.91
2018-09-17T00:51:02.248Z,62.97
2018-09-17T00:51:33.361Z,62.52
2018-09-17T00:52:04.472Z,62.78
2018-09-17T00:52:35.650Z,62.61
2018-09-17T00:53:06.772Z,62.52
2018-09-17T00:53:37.894Z,62.67
2018-09-17T00:54:09.013Z,62.28
2018-09-17T00:54:40.126Z,62.83
2018-09-17T00:55:11.302Z,62.52
2018-09-17T00:55:42.444Z,62.71
2018-09-17T00:56:13.587Z,62.59
2018-09-17T00:56:44.716Z,62.07
2018-09-17T00:57:15.865Z,62.67
2018-09-17T00:57:47.052Z,62.41
2018-09-17T00:58:18.207Z,62.67
2018-09-17T00:58:49.355Z,62.85
2018-09-17T00:59:20.484Z,62.72
2018-09-17T00:59:51.622Z,62.42
2018-09-17T01:00:22.740Z,63.25
2018-09-17T01:00:53.871Z,63.25
2018-09-17T01:01:25.017Z,63.04
2018-09-17T01:01:56.126Z,62.58
2018-09-17T01:02:27.268Z,62.68
2018-09-17T01:02:58.383Z,62.28
2018-09-17T01:03:29.525Z,62.19
2018-09-17T01:04:00.706Z,62.90
2018-09-17T01:04:31.848Z,62.82
2018-09-17T01:05:03.011Z,62.72
2018-09-17T01:05:34.148Z,62.35
2018-09-17T01:06:05.268Z,62.97
2018-09-17T01:06:36.410Z,62.10
2018-09-17T01:07:07.532Z,62.32
2018-09-17T01:07:38.676Z,62.33
2018-09-17T01:08:09.812Z,61.62
2018-09-17T01:08:40.941Z,61.77
2018-09-17T01:09:12.089Z,61.42
2018-09-17T01:09:43.204Z,61.31
2018-09-17T01:10:14.311Z,61.15
2018-09-17T01:10:45.431Z,61.25
2018-09-17T01:11:16.555Z,60.89
2018-09-17T01:11:47.681Z,60.97
2018-09-17T01:12:18.837Z,60.99
2018-09-17T01:12:49.988Z,60.85
2018-09-17T01:13:21.102Z,61.07
2018-09-17T01:13:52.248Z,60.01
2018-09-17T01:14:23.391Z,60.63
2018-09-17T01:14:54.509Z,59.94
2018-09-17T01:15:25.615Z,60.81
2018-09-17T01:15:56.732Z,60.93
2018-09-17T01:16:27.841Z,60.35
2018-09-17T01:16:58.950Z,59.88
2018-09-17T01:17:30.075Z,60.03
2018-09-17T01:18:01.234Z,59.76
2018-09-17T01:18:32.387Z,59.76
2018-09-17T01:19:03.519Z,59.25
2018-09-17T01:19:34.652Z,59.38
2018-09-17T01:20:05.769Z,59.63
2018-09-17T01:20:36.883Z,59.39
2018-09-17T01:21:08.010Z,59.70
2018-09-17T01:21:39.153Z,59.40
2018-09-17T01:22:10.279Z,59.66
2018-09-17T01:22:41.406Z,59.73
2018-09-17T01:23:12.526Z,58.82
2018-09-17T01:23:43.678Z,59.45
2018-09-17T01:24:14.879Z,58.91
2018-09-17T01:24:46.030Z,58.57
2018-09-17T01:25:17.158Z,58.46
2018-09-17T01:25:48.321Z,58.62
2018-09-17T01:26:19.438Z,58.31
2018-09-17T01:26:50.569Z,58.63
2018-09-17T01:27:21.725Z,58.36
2018-09-17T01:27:52.865Z,58.35
2018-09-17T01:28:23.998Z,58.34
2018-09-17T01:28:55.111Z,58.33
2018-09-17T01:29:26.303Z,58.13
2018-09-17T01:29:57.405Z,58.13
2018-09-17T01:30:28.585Z,57.98
2018-09-17T01:30:59.683Z,58.14
2018-09-17T01:31:30.794Z,58.14
2018-09-17T01:32:01.910Z,58.71
2018-09-17T01:32:33.037Z,58.31
2018-09-17T01:33:04.177Z,58.72
2018-09-17T01:33:35.289Z,58.67
2018-09-17T01:34:06.447Z,58.87
2018-09-17T01:34:37.625Z,59.21
2018-09-17T01:35:08.750Z,58.44
2018-09-17T01:35:39.864Z,58.66
2018-09-17T01:36:11.017Z,59.06
2018-09-17T01:36:42.127Z,58.09
2018-09-17T01:37:13.250Z,58.50
2018-09-17T01:37:44.385Z,58.51
2018-09-17T01:38:15.527Z,58.83
2018-09-17T01:38:46.648Z,58.38
2018-09-17T01:39:17.838Z,58.38
2018-09-17T01:39:48.958Z,58.85
2018-09-17T01:40:20.075Z,58.32
2018-09-17T01:40:51.201Z,58.76
2018-09-17T01:41:22.313Z,58.65
2018-09-17T01:41:53.422Z,57.73
2018-09-17T01:42:24.552Z,58.32
2018-09-17T01:42:55.673Z,58.05
2018-09-17T01:43:26.859Z,58.10
2018-09-17T01:43:57.996Z,58.18
2018-09-17T01:44:29.116Z,58.84
2018-09-17T01:45:00.236Z,59.08
2018-09-17T01:45:31.358Z,59.49
2018-09-17T01:46:02.549Z,58.83
2018-09-17T01:46:33.637Z,59.29
2018-09-17T01:47:04.793Z,59.16
2018-09-17T01:47:35.910Z,59.01
2018-09-17T01:48:07.057Z,58.87
2018-09-17T01:48:38.169Z,58.19
2018-09-17T01:49:09.285Z,58.37
2018-09-17T01:49:40.396Z,58.16
2018-09-17T01:50:11.563Z,58.09
2018-09-17T01:50:42.708Z,58.10
2018-09-17T01:51:13.832Z,57.46
2018-09-17T01:51:44.956Z,57.57
2018-09-17T01:52:16.109Z,57.84
2018-09-17T01:52:47.249Z,57.38
2018-09-17T01:53:18.385Z,57.17
2018-09-17T01:53:49.497Z,57.18
2018-09-17T01:54:20.601Z,57.15
2018-09-17T01:54:51.738Z,57.74
2018-09-17T01:55:22.896Z,57.32
2018-09-17T01:55:54.038Z,58.49
2018-09-17T01:56:25.151Z,58.26
2018-09-17T01:56:56.268Z,58.28
2018-09-17T01:57:27.430Z,57.72
2018-09-17T01:57:58.543Z,58.39
2018-09-17T01:58:29.703Z,57.83
2018-09-17T01:59:00.836Z,57.69
2018-09-17T01:59:31.967Z,57.64
2018-09-17T02:00:03.100Z,57.67
2018-09-17T02:00:34.264Z,57.24
2018-09-17T02:01:05.405Z,58.32
2018-09-17T02:01:36.526Z,58.24
2018-09-17T02:02:07.648Z,58.23
2018-09-17T02:02:38.782Z,57.80
2018-09-17T02:03:09.890Z,58.28
2018-09-17T02:03:41.031Z,58.11
2018-09-17T02:04:12.143Z,58.05
2018-09-17T02:04:43.277Z,57.59
2018-09-17T02:05:14.399Z,58.12
2018-09-17T02:05:45.553Z,57.87
2018-09-17T02:06:16.689Z,58.05
2018-09-17T02:06:47.820Z,57.29
2018-09-17T02:07:18.922Z,57.68
2018-09-17T02:07:50.043Z,57.78
2018-09-17T02:08:21.177Z,58.01
2018-09-17T02:08:52.378Z,57.65
2018-09-17T02:09:23.471Z,57.83
2018-09-17T02:09:54.600Z,57.31
2018-09-17T02:10:25.742Z,57.27
2018-09-17T02:10:56.855Z,57.67
2018-09-17T02:11:28.024Z,57.84
2018-09-17T02:11:59.193Z,57.19
2018-09-17T02:12:30.350Z,57.72
2018-09-17T02:13:01.528Z,57.65
2018-09-17T02:13:32.657Z,57.34
2018-09-17T02:14:03.798Z,57.54
2018-09-17T02:14:34.921Z,57.26
2018-09-17T02:15:06.036Z,57.10
2018-09-17T02:15:37.174Z,56.59
2018-09-17T02:16:08.308Z,57.40
2018-09-17T02:16:39.424Z,56.41
2018-09-17T02:17:10.580Z,56.71
2018-09-17T02:17:41.726Z,56.22
2018-09-17T02:18:12.849Z,56.50
2018-09-17T02:18:43.969Z,56.29
2018-09-17T02:19:15.106Z,56.53
2018-09-17T02:19:46.246Z,56.54
2018-09-17T02:20:17.379Z,56.34
2018-09-17T02:20:49.099Z,56.27
2018-09-17T02:21:20.221Z,56.34
2018-09-17T02:21:51.906Z,56.66
2018-09-17T02:22:23.078Z,55.79
2018-09-17T02:22:54.204Z,55.53
2018-09-17T02:23:25.320Z,55.50
2018-09-17T02:23:56.476Z,56.05
2018-09-17T02:24:27.626Z,55.48
2018-09-17T02:24:58.740Z,56.15
2018-09-17T02:25:29.864Z,55.94
2018-09-17T02:26:00.984Z,55.37
2018-09-17T02:26:32.133Z,55.96
2018-09-17T02:27:03.285Z,55.33
2018-09-17T02:27:34.392Z,55.77
2018-09-17T02:28:05.530Z,55.22
2018-09-17T02:28:36.648Z,55.64
2018-09-17T02:29:07.762Z,55.25
2018-09-17T02:29:38.959Z,55.47
2018-09-17T02:30:10.156Z,56.72
2018-09-17T02:30:41.313Z,56.04
2018-09-17T02:31:12.439Z,56.18
2018-09-17T02:31:43.554Z,56.11
2018-09-17T02:32:14.694Z,56.09
2018-09-17T02:32:45.811Z,56.26
2018-09-17T02:33:16.989Z,56.25
2018-09-17T02:33:48.120Z,55.99
2018-09-17T02:34:19.236Z,56.08
2018-09-17T02:34:50.353Z,56.27
2018-09-17T02:35:21.486Z,55.81
2018-09-17T02:35:52.598Z,56.04
2018-09-17T02:36:23.747Z,56.17
2018-09-17T02:36:54.855Z,55.98
2018-09-17T02:37:25.984Z,55.97
2018-09-17T02:37:57.125Z,56.00
2018-09-17T02:38:28.251Z,55.96
2018-09-17T02:38:59.376Z,56.81
2018-09-17T02:39:30.487Z,56.81
2018-09-17T02:40:01.627Z,56.52
2018-09-17T02:40:32.765Z,56.77
2018-09-17T02:41:03.919Z,57.23
2018-09-17T02:41:35.033Z,57.26
2018-09-17T02:42:06.149Z,57.18
2018-09-17T02:42:37.263Z,57.20
2018-09-17T02:43:08.371Z,56.64
2018-09-17T02:43:39.480Z,56.54
2018-09-17T02:44:10.592Z,56.76
2018-09-17T02:44:41.726Z,57.15
2018-09-17T02:45:12.843Z,57.02
2018-09-17T02:45:43.958Z,57.99
2018-09-17T02:46:15.106Z,57.46
2018-09-17T02:46:46.215Z,57.90
2018-09-17T02:47:17.333Z,58.12
2018-09-17T02:47:48.445Z,58.07
2018-09-17T02:48:19.585Z,57.98
2018-09-17T02:48:50.699Z,58.39
2018-09-17T02:49:21.896Z,58.27
2018-09-17T02:49:53.018Z,57.61
2018-09-17T02:50:24.184Z,58.22
2018-09-17T02:50:55.331Z,58.08
2018-09-17T02:51:26.489Z,58.68
2018-09-17T02:51:57.604Z,58.61
2018-09-17T02:52:28.724Z,58.51
2018-09-17T02:52:59.836Z,58.93
2018-09-17T02:53:31.019Z,58.59
2018-09-17T02:54:02.114Z,58.86
2018-09-17T02:54:33.224Z,59.04
2018-09-17T02:55:04.334Z,60.84
2018-09-17T02:55:35.517Z,62.01
2018-09-17T02:56:06.625Z,61.17
2018-09-17T02:56:38.592Z,60.94
2018-09-17T02:57:09.724Z,61.47
2018-09-17T02:57:40.852Z,62.06
2018-09-17T02:58:12.005Z,62.03
2018-09-17T02:58:43.132Z,61.77
2018-09-17T02:59:14.241Z,61.50
2018-09-17T02:59:45.356Z,62.53
2018-09-17T03:00:16.480Z,62.88
2018-09-17T03:00:47.596Z,61.73
2018-09-17T03:01:18.730Z,62.05
2018-09-17T03:01:49.853Z,61.75
2018-09-17T03:02:21.035Z,62.03
2018-09-17T03:02:52.169Z,61.04
2018-09-17T03:03:23.290Z,61.64
2018-09-17T03:03:54.399Z,62.10
2018-09-17T03:04:25.542Z,62.16
2018-09-17T03:04:56.685Z,62.16
2018-09-17T03:05:27.799Z,61.95
2018-09-17T03:05:58.920Z,63.63
2018-09-17T03:06:30.056Z,64.12
2018-09-17T03:07:01.177Z,64.06
2018-09-17T03:07:32.345Z,63.30
2018-09-17T03:08:03.445Z,62.56
2018-09-17T03:08:34.565Z,62.56
2018-09-17T03:09:05.676Z,62.96
2018-09-17T03:09:36.851Z,62.85
2018-09-17T03:10:07.994Z,62.99
2018-09-17T03:10:39.133Z,63.27
2018-09-17T03:11:10.260Z,62.72
2018-09-17T03:11:41.381Z,63.22
2018-09-17T03:12:12.529Z,63.36
2018-09-17T03:12:43.659Z,63.44
2018-09-17T03:13:14.804Z,62.86
2018-09-17T03:13:45.950Z,62.77
2018-09-17T03:14:17.067Z,62.44
2018-09-17T03:14:48.203Z,62.66
2018-09-17T03:15:19.315Z,62.76
2018-09-17T03:15:50.453Z,63.07
2018-09-17T03:16:21.582Z,63.46
2018-09-17T03:16:52.710Z,62.98
2018-09-17T03:17:23.875Z,63.11
2018-09-17T03:17:55.048Z,63.16
2018-09-17T03:18:26.194Z,62.19
2018-09-17T03:18:57.332Z,62.03
2018-09-17T03:19:28.478Z,63.00
2018-09-17T03:19:59.586Z,63.11
2018-09-17T03:20:30.718Z,62.89
2018-09-17T03:21:01.831Z,62.26
2018-09-17T03:21:32.953Z,63.17
2018-09-17T03:22:04.074Z,62.91
2018-09-17T03:22:35.214Z,62.80
2018-09-17T03:23:06.375Z,63.06
2018-09-17T03:23:37.516Z,63.66
2018-09-17T03:24:08.663Z,63.00
2018-09-17T03:24:39.871Z,63.51
2018-09-17T03:25:10.967Z,63.15
2018-09-17T03:25:42.097Z,62.46
2018-09-17T03:26:13.294Z,62.65
2018-09-17T03:26:44.425Z,63.50
2018-09-17T03:27:15.549Z,63.61
2018-09-17T03:27:46.671Z,64.48
2018-09-17T03:28:17.803Z,64.19
2018-09-17T03:28:48.920Z,64.55
2018-09-17T03:29:20.048Z,63.67
2018-09-17T03:29:51.211Z,63.67
2018-09-17T03:30:22.326Z,62.99
2018-09-17T03:30:53.451Z,62.33
2018-09-17T03:31:24.590Z,62.85
2018-09-17T03:31:55.762Z,64.08
2018-09-17T03:32:26.909Z,65.50
2018-09-17T03:32:58.043Z,64.68
2018-09-17T03:33:29.197Z,64.95
2018-09-17T03:34:00.311Z,64.97
2018-09-17T03:34:31.419Z,65.34
2018-09-17T03:35:02.529Z,64.77
2018-09-17T03:35:33.639Z,64.40
2018-09-17T03:36:04.777Z,65.00
2018-09-17T03:36:35.908Z,66.68
2018-09-17T03:37:07.064Z,67.25
2018-09-17T03:37:38.183Z,67.19
2018-09-17T03:38:09.286Z,69.06
2018-09-17T03:38:40.439Z,68.50
2018-09-17T03:39:11.604Z,67.69
2018-09-17T03:39:42.879Z,66.73
2018-09-17T03:40:13.984Z,68.20
2018-09-17T03:40:45.088Z,68.54
2018-09-17T03:41:16.210Z,67.55
2018-09-17T03:41:47.336Z,67.49
2018-09-17T03:42:18.523Z,67.61
2018-09-17T03:42:49.676Z,68.43
2018-09-17T03:43:20.788Z,68.25
2018-09-17T03:43:51.927Z,67.91
2018-09-17T03:44:23.079Z,68.68
2018-09-17T03:44:54.212Z,68.55
2018-09-17T03:45:25.334Z,69.00
2018-09-17T03:45:56.448Z,69.46
2018-09-17T03:46:27.652Z,69.79
2018-09-17T03:46:58.787Z,69.78
2018-09-17T03:47:29.933Z,68.67
2018-09-17T03:48:01.072Z,69.68
2018-09-17T03:48:32.214Z,69.59
2018-09-17T03:49:03.342Z,69.32
2018-09-17T03:49:34.517Z,68.54
2018-09-17T03:50:05.645Z,69.31
2018-09-17T03:50:36.775Z,69.96
2018-09-17T03:51:07.913Z,69.81
2018-09-17T03:51:39.034Z,70.21
2018-09-17T03:52:10.158Z,70.03
2018-09-17T03:52:41.283Z,70.64
2018-09-17T03:53:12.408Z,71.03
2018-09-17T03:53:43.523Z,70.96
2018-09-17T03:54:14.681Z,70.94
2018-09-17T03:54:45.934Z,71.95
2018-09-17T03:55:17.071Z,71.36
2018-09-17T03:55:48.204Z,71.57
2018-09-17T03:56:19.329Z,71.84
2018-09-17T03:56:50.530Z,71.46
2018-09-17T03:57:21.694Z,71.24
2018-09-17T03:57:52.807Z,71.16
2018-09-17T03:58:23.936Z,71.50
2018-09-17T03:58:55.057Z,71.27
2018-09-17T03:59:26.185Z,72.21
2018-09-17T03:59:57.320Z,71.82
2018-09-17T04:00:28.472Z,71.16
2018-09-17T04:00:59.631Z,71.53
2018-09-17T04:01:30.748Z,71.33
2018-09-17T04:02:01.879Z,71.70
2018-09-17T04:02:33.024Z,71.58
2018-09-17T04:03:04.149Z,72.01
2018-09-17T04:03:35.326Z,71.85
2018-09-17T04:04:06.453Z,71.73
2018-09-17T04:04:37.579Z,72.02
2018-09-17T04:05:08.721Z,72.01
2018-09-17T04:05:39.897Z,72.46
2018-09-17T04:06:11.016Z,72.95
2018-09-17T04:06:42.148Z,73.24
2018-09-17T04:07:13.276Z,72.08
2018-09-17T04:07:44.413Z,73.07
2018-09-17T04:08:15.579Z,72.73
2018-09-17T04:08:46.718Z,73.31
2018-09-17T04:09:17.844Z,73.37
2018-09-17T04:09:49.028Z,73.00
2018-09-17T04:10:20.152Z,73.12
2018-09-17T04:10:51.275Z,73.09
2018-09-17T04:11:22.419Z,74.02
2018-09-17T04:11:53.569Z,73.66
2018-09-17T04:12:24.724Z,73.47
2018-09-17T04:12:55.875Z,73.98
2018-09-17T04:13:27.018Z,74.20
2018-09-17T04:13:58.134Z,74.17
2018-09-17T04:14:29.266Z,73.72
2018-09-17T04:15:00.458Z,73.80
2018-09-17T04:15:31.597Z,74.29
2018-09-17T04:16:02.739Z,74.11
2018-09-17T04:16:33.858Z,74.65
2018-09-17T04:17:05.006Z,74.01
2018-09-17T04:17:36.136Z,74.49
2018-09-17T04:18:07.534Z,73.81
2018-09-17T04:18:38.652Z,74.80
2018-09-17T04:19:09.802Z,74.28
2018-09-17T04:19:40.910Z,75.07
2018-09-17T04:20:12.054Z,74.56
2018-09-17T04:20:43.211Z,74.11
2018-09-17T04:21:14.338Z,74.25
2018-09-17T04:21:45.447Z,74.64
2018-09-17T04:22:16.566Z,74.83
2018-09-17T04:22:47.697Z,74.18
2018-09-17T04:23:18.831Z,74.31
2018-09-17T04:23:49.950Z,73.83
2018-09-17T04:24:21.092Z,74.22
2018-09-17T04:24:52.219Z,74.25
2018-09-17T04:25:24.221Z,74.63
2018-09-17T04:25:55.377Z,74.25
2018-09-17T04:26:26.487Z,74.17
2018-09-17T04:26:57.639Z,74.29
2018-09-17T04:27:28.764Z,74.18
2018-09-17T04:27:59.873Z,74.03
2018-09-17T04:28:30.992Z,74.10
2018-09-17T04:29:02.116Z,74.17
2018-09-17T04:29:33.231Z,74.22
2018-09-17T04:30:04.365Z,74.88
2018-09-17T04:30:35.528Z,74.52
2018-09-17T04:31:06.702Z,74.65
2018-09-17T04:31:37.904Z,74.93
2018-09-17T04:32:09.005Z,74.83
2018-09-17T04:32:40.143Z,74.80
2018-09-17T04:33:11.323Z,74.40
2018-09-17T04:33:42.439Z,74.48
2018-09-17T04:34:13.571Z,74.38
2018-09-17T04:34:44.732Z,74.58
2018-09-17T04:35:15.873Z,74.48
2018-09-17T04:35:47.031Z,73.64
2018-09-17T04:36:18.140Z,73.90
2018-09-17T04:36:49.297Z,74.14
2018-09-17T04:37:20.429Z,74.57
2018-09-17T04:37:51.545Z,74.56
2018-09-17T04:38:22.692Z,74.21
2018-09-17T04:38:53.870Z,74.84
2018-09-17T04:39:25.053Z,74.91
2018-09-17T04:39:56.247Z,74.21
2018-09-17T04:40:27.317Z,74.37
2018-09-17T04:40:58.435Z,74.34
2018-09-17T04:41:29.539Z,74.21
2018-09-17T04:42:00.676Z,74.38
2018-09-17T04:42:31.796Z,74.36
2018-09-17T04:43:02.954Z,73.67
2018-09-17T04:43:34.088Z,73.15
2018-09-17T04:44:05.270Z,73.73
2018-09-17T04:44:36.391Z,73.67
2018-09-17T04:45:07.498Z,74.17
2018-09-17T04:45:38.634Z,73.64
2018-09-17T04:46:09.743Z,73.93
2018-09-17T04:46:40.896Z,73.98
2018-09-17T04:47:12.062Z,73.43
2018-09-17T04:47:43.189Z,73.37
2018-09-17T04:48:14.319Z,73.04
2018-09-17T04:48:45.446Z,72.74
2018-09-17T04:49:16.568Z,73.40
2018-09-17T04:49:47.694Z,73.14
2018-09-17T04:50:18.835Z,73.44
2018-09-17T04:50:49.971Z,73.51
2018-09-17T04:51:21.092Z,73.01
2018-09-17T04:51:52.223Z,73.24
2018-09-17T04:52:23.402Z,73.47
2018-09-17T04:52:54.529Z,73.84
2018-09-17T04:53:25.662Z,73.78
2018-09-17T04:53:56.795Z,73.57
2018-09-17T04:54:27.903Z,72.92
2018-09-17T04:54:59.046Z,73.86
2018-09-17T04:55:30.170Z,73.82
2018-09-17T04:56:01.303Z,73.02
2018-09-17T04:56:32.423Z,73.79
2018-09-17T04:57:03.541Z,73.34
2018-09-17T04:57:34.688Z,73.12
2018-09-17T04:58:05.804Z,73.70
2018-09-17T04:58:36.969Z,72.57
2018-09-17T04:59:08.102Z,72.67
2018-09-17T04:59:39.219Z,72.99
2018-09-17T05:00:10.351Z,72.56
2018-09-17T05:00:41.457Z,72.26
2018-09-17T05:01:12.567Z,72.26
2018-09-17T05:01:43.684Z,72.34
2018-09-17T05:02:14.805Z,72.16
2018-09-17T05:02:45.960Z,72.30
2018-09-17T05:03:17.099Z,71.64
2018-09-17T05:03:48.246Z,72.24
2018-09-17T05:04:19.357Z,72.36
2018-09-17T05:04:50.462Z,71.86
2018-09-17T05:05:21.584Z,72.57
2018-09-17T05:05:52.687Z,73.12
2018-09-17T05:06:23.804Z,72.56
2018-09-17T05:06:54.943Z,72.87
2018-09-17T05:07:26.168Z,72.61
2018-09-17T05:07:57.239Z,72.14
2018-09-17T05:08:28.375Z,72.09
2018-09-17T05:08:59.529Z,72.45
2018-09-17T05:09:30.659Z,71.82
2018-09-17T05:10:01.770Z,72.59
2018-09-17T05:10:32.883Z,72.28
2018-09-17T05:11:04.094Z,72.84
2018-09-17T05:11:35.204Z,72.25
2018-09-17T05:12:06.340Z,72.35
2018-09-17T05:12:37.446Z,72.46
2018-09-17T05:13:08.634Z,72.57
2018-09-17T05:13:39.730Z,72.70
2018-09-17T05:14:10.844Z,71.97
2018-09-17T05:14:41.984Z,72.95
2018-09-17T05:15:13.109Z,72.39
2018-09-17T05:15:44.224Z,72.10
2018-09-17T05:16:15.380Z,72.60
2018-09-17T05:16:46.537Z,72.44
2018-09-17T05:17:17.698Z,71.80
2018-09-17T05:17:48.845Z,72.31
2018-09-17T05:18:19.960Z,71.59
2018-09-17T05:18:51.089Z,71.48
2018-09-17T05:19:22.207Z,72.26
2018-09-17T05:19:53.326Z,71.15
2018-09-17T05:20:24.462Z,71.22
2018-09-17T05:20:55.581Z,71.13
2018-09-17T05:21:26.729Z,72.78
2018-09-17T05:21:57.906Z,71.89
2018-09-17T05:22:29.044Z,71.67
2018-09-17T05:23:00.164Z,71.87
2018-09-17T05:23:31.284Z,71.44
2018-09-17T05:24:02.432Z,72.13
2018-09-17T05:24:33.554Z,72.08
2018-09-17T05:25:04.661Z,71.40
2018-09-17T05:25:35.780Z,71.04
2018-09-17T05:26:06.900Z,71.93
2018-09-17T05:26:38.088Z,72.28
2018-09-17T05:27:09.232Z,72.16
2018-09-17T05:27:40.348Z,73.04
2018-09-17T05:28:11.465Z,72.87
2018-09-17T05:28:42.585Z,73.35
2018-09-17T05:29:13.719Z,72.38
2018-09-17T05:29:44.829Z,72.46
2018-09-17T05:30:15.941Z,72.88
2018-09-17T05:30:47.055Z,72.36
2018-09-17T05:31:18.206Z,72.11
2018-09-17T05:31:49.348Z,72.38
2018-09-17T05:32:20.487Z,72.57
2018-09-17T05:32:51.633Z,72.96
2018-09-17T05:33:22.750Z,73.04
2018-09-17T05:33:53.864Z,72.21
2018-09-17T05:34:24.999Z,72.39
2018-09-17T05:34:56.167Z,72.59
2018-09-17T05:35:27.292Z,72.57
2018-09-17T05:35:58.440Z,72.68
2018-09-17T05:36:29.555Z,72.77
2018-09-17T05:37:00.687Z,72.56
2018-09-17T05:37:31.818Z,71.96
2018-09-17T05:38:02.978Z,72.32
2018-09-17T05:38:34.198Z,71.64
2018-09-17T05:39:05.321Z,72.25
2018-09-17T05:39:36.427Z,72.35
2018-09-17T05:40:07.584Z,71.69
2018-09-17T05:40:38.725Z,71.25
2018-09-17T05:41:09.843Z,70.99
2018-09-17T05:41:40.947Z,71.22
2018-09-17T05:42:12.051Z,71.07
2018-09-17T05:42:43.165Z,70.06
2018-09-17T05:43:14.280Z,70.24
2018-09-17T05:43:45.413Z,70.13
2018-09-17T05:44:16.571Z,70.12
2018-09-17T05:44:47.657Z,69.32
2018-09-17T05:45:18.874Z,69.09
2018-09-17T05:45:49.983Z,68.78
2018-09-17T05:46:21.114Z,69.17
2018-09-17T05:46:52.233Z,69.61
2018-09-17T05:47:23.397Z,68.85
2018-09-17T05:47:54.542Z,69.44
2018-09-17T05:48:25.656Z,69.56
2018-09-17T05:48:56.775Z,70.15
2018-09-17T05:49:27.884Z,69.35
2018-09-17T05:49:59.000Z,69.24
2018-09-17T05:50:30.174Z,69.42
2018-09-17T05:51:01.293Z,70.03
2018-09-17T05:51:32.419Z,70.21
2018-09-17T05:52:03.553Z,70.82
2018-09-17T05:52:34.672Z,70.83
2018-09-17T05:53:05.808Z,70.94
2018-09-17T05:53:37.869Z,70.01
2018-09-17T05:54:08.990Z,70.54
2018-09-17T05:54:40.125Z,69.97
2018-09-17T05:55:11.235Z,69.34
2018-09-17T05:55:42.352Z,69.42
2018-09-17T05:56:13.595Z,69.36
2018-09-17T05:56:44.704Z,70.14
2018-09-17T05:57:15.850Z,68.71
2018-09-17T05:57:47.064Z,69.54
2018-09-17T05:58:18.211Z,69.64
2018-09-17T05:58:49.341Z,69.43
2018-09-17T05:59:20.466Z,68.86
2018-09-17T05:59:51.614Z,68.70
2018-09-17T06:00:22.745Z,67.17
2018-09-17T06:00:53.878Z,67.75
2018-09-17T06:01:25.023Z,67.58
2018-09-17T06:01:56.132Z,66.41
2018-09-17T06:02:27.255Z,67.69
2018-09-17T06:02:58.418Z,67.46
2018-09-17T06:03:29.563Z,67.50
2018-09-17T06:04:01.310Z,67.54
2018-09-17T06:04:32.462Z,67.89
2018-09-17T06:05:03.616Z,67.28
2018-09-17T06:05:34.829Z,67.41
2018-09-17T06:06:05.982Z,67.39
2018-09-17T06:06:37.083Z,67.61
2018-09-17T06:07:08.230Z,68.15
2018-09-17T06:07:39.378Z,68.05
2018-09-17T06:08:10.495Z,68.14
2018-09-17T06:09:19.040Z,69.89
2018-09-17T06:09:50.241Z,70.08
2018-09-17T06:10:21.304Z,69.11
2018-09-17T06:10:52.402Z,69.32
2018-09-17T06:11:23.552Z,70.73
2018-09-17T06:11:54.745Z,70.36
2018-09-17T06:12:25.772Z,70.68
2018-09-17T06:12:56.924Z,70.43
2018-09-17T06:13:28.079Z,70.38
2018-09-17T06:13:59.235Z,70.94
2018-09-17T06:14:30.373Z,70.52
2018-09-17T06:15:01.553Z,69.98
2018-09-17T06:15:32.677Z,70.54
2018-09-17T06:16:03.794Z,69.74
2018-09-17T06:16:34.932Z,70.59
2018-09-17T06:17:06.058Z,70.33
2018-09-17T06:17:37.207Z,69.54
2018-09-17T06:18:08.339Z,69.76
2018-09-17T06:18:39.493Z,69.78
2018-09-17T06:19:10.598Z,69.55
2018-09-17T06:19:41.706Z,69.81
2018-09-17T06:20:12.844Z,69.53
2018-09-17T06:20:43.955Z,69.37
2018-09-17T06:21:15.095Z,68.46
2018-09-17T06:21:46.238Z,68.84
2018-09-17T06:22:17.393Z,67.77
2018-09-17T06:22:48.581Z,67.81
2018-09-17T06:23:19.765Z,67.93
2018-09-17T06:23:50.838Z,66.60
2018-09-17T06:24:21.960Z,66.78
2018-09-17T06:24:53.127Z,66.96
2018-09-17T06:25:24.270Z,66.29
2018-09-17T06:25:55.440Z,66.78
2018-09-17T06:26:26.585Z,65.96
2018-09-17T06:26:57.762Z,65.76
2018-09-17T06:27:28.870Z,66.30
2018-09-17T06:28:00.080Z,65.90
2018-09-17T06:28:31.214Z,65.20
2018-09-17T06:29:02.332Z,65.33
2018-09-17T06:29:33.463Z,65.54
2018-09-17T06:30:04.589Z,64.83
2018-09-17T06:30:35.757Z,65.13
2018-09-17T06:31:06.937Z,64.48
2018-09-17T06:31:38.079Z,64.75
2018-09-17T06:32:09.216Z,63.85
2018-09-17T06:32:40.376Z,63.43
2018-09-17T06:33:11.500Z,63.52
2018-09-17T06:33:42.647Z,64.00
2018-09-17T06:34:13.756Z,62.61
2018-09-17T06:34:44.883Z,62.45
2018-09-17T06:35:16.008Z,62.53
2018-09-17T06:35:47.131Z,61.23
2018-09-17T06:36:18.297Z,62.24
2018-09-17T06:36:49.408Z,62.77
2018-09-17T06:37:20.532Z,61.98
2018-09-17T06:37:51.668Z,62.20
2018-09-17T06:38:22.791Z,61.75
2018-09-17T06:38:53.952Z,62.80
2018-09-17T06:39:25.070Z,62.85
2018-09-17T06:39:56.195Z,62.07
2018-09-17T06:40:27.360Z,62.51
2018-09-17T06:40:58.510Z,62.25
2018-09-17T06:41:29.650Z,63.63